createdAt,value
2018-07-31T00:01:39.443Z,22.10
2018-07-31T00:04:36.687Z,22.10
2018-07-31T00:07:34.047Z,22.06
2018-07-31T00:10:31.881Z,22.14
2018-07-31T00:13:29.748Z,22.17
2018-07-31T00:16:27.799Z,21.90
2018-07-31T00:19:25.052Z,21.91
2018-07-31T00:22:22.594Z,21.88
2018-07-31T00:25:19.807Z,21.74
2018-07-31T00:28:17.783Z,21.55
2018-07-31T00:31:14.878Z,21.53
2018-07-31T00:34:12.628Z,21.56
2018-07-31T00:37:10.009Z,21.49
2018-07-31T00:40:07.100Z,21.48
2018-07-31T00:43:05.046Z,21.38
2018-07-31T00:46:02.108Z,21.31
2018-07-31T00:48:59.160Z,21.26
2018-07-31T00:51:57.140Z,21.43
2018-07-31T00:54:55.112Z,21.61
2018-07-31T00:57:52.175Z,21.59
2018-07-31T01:00:49.436Z,21.48
2018-07-31T01:03:47.206Z,21.35
2018-07-31T01:06:48.652Z,21.23
2018-07-31T01:09:46.622Z,21.15
2018-07-31T01:12:43.790Z,21.12
2018-07-31T01:15:41.883Z,21.03
2018-07-31T01:18:38.966Z,21.06
2018-07-31T01:21:36.360Z,21.19
2018-07-31T01:24:34.140Z,21.24
2018-07-31T01:27:31.721Z,21.14
2018-07-31T01:30:28.816Z,21.10
2018-07-31T01:33:26.026Z,21.13
2018-07-31T01:36:23.248Z,21.05
2018-07-31T01:39:22.236Z,20.79
2018-07-31T01:42:20.163Z,20.74
2018-07-31T01:45:17.430Z,20.67
2018-07-31T01:48:14.667Z,20.76
2018-07-31T01:51:11.699Z,20.76
2018-07-31T01:54:09.797Z,20.81
2018-07-31T01:57:06.736Z,20.77
2018-07-31T02:00:04.804Z,20.64
2018-07-31T02:03:02.770Z,20.47
2018-07-31T02:06:00.850Z,20.43
2018-07-31T02:08:58.898Z,20.41
2018-07-31T02:11:56.866Z,20.52
2018-07-31T02:14:53.957Z,20.50
2018-07-31T02:17:50.995Z,20.46
2018-07-31T02:20:48.819Z,20.55
2018-07-31T02:23:46.880Z,20.55
2018-07-31T02:26:44.067Z,20.44
2018-07-31T02:29:47.759Z,20.45
2018-07-31T02:32:46.527Z,20.43
2018-07-31T02:35:44.294Z,20.41
2018-07-31T02:38:41.951Z,20.45
2018-07-31T02:41:39.943Z,20.40
2018-07-31T02:44:38.016Z,20.31
2018-07-31T02:47:35.168Z,20.09
2018-07-31T02:50:33.154Z,20.02
2018-07-31T02:53:31.191Z,19.83
2018-07-31T02:56:28.883Z,19.80
2018-07-31T02:59:26.546Z,19.92
2018-07-31T03:02:24.548Z,20.08
2018-07-31T03:05:22.508Z,20.09
2018-07-31T03:08:20.580Z,20.08
2018-07-31T03:11:17.555Z,19.90
2018-07-31T03:14:14.504Z,19.98
2018-07-31T03:17:12.558Z,19.88
2018-07-31T03:20:10.539Z,19.73
2018-07-31T03:23:07.688Z,19.75
2018-07-31T03:26:04.756Z,19.71
2018-07-31T03:29:02.672Z,19.91
2018-07-31T03:32:01.805Z,19.77
2018-07-31T03:34:59.825Z,19.81
2018-07-31T03:37:57.163Z,20.04
2018-07-31T03:40:54.423Z,20.28
2018-07-31T03:43:51.859Z,20.52
2018-07-31T03:46:49.548Z,20.48
2018-07-31T03:49:47.352Z,20.04
2018-07-31T03:52:45.287Z,19.78
2018-07-31T03:55:43.327Z,19.92
2018-07-31T03:58:40.318Z,20.14
2018-07-31T04:01:37.579Z,20.42
2018-07-31T04:04:35.299Z,20.79
2018-07-31T04:07:33.211Z,21.11
2018-07-31T04:10:31.071Z,21.24
2018-07-31T04:13:29.144Z,21.80
2018-07-31T04:16:27.029Z,22.32
2018-07-31T04:19:24.007Z,22.86
2018-07-31T04:22:21.983Z,23.14
2018-07-31T04:25:19.927Z,23.32
2018-07-31T04:28:17.882Z,23.58
2018-07-31T04:31:15.063Z,24.21
2018-07-31T04:34:12.016Z,24.72
2018-07-31T04:37:09.051Z,25.15
2018-07-31T04:40:06.241Z,25.76
2018-07-31T04:43:04.144Z,26.26
2018-07-31T04:46:01.853Z,26.55
2018-07-31T04:48:59.531Z,26.02
2018-07-31T04:51:57.286Z,25.25
2018-07-31T04:54:54.644Z,25.07
2018-07-31T04:57:52.296Z,25.25
2018-07-31T05:00:50.007Z,25.64
2018-07-31T05:03:47.871Z,25.97
2018-07-31T05:06:44.985Z,26.29
2018-07-31T05:09:42.066Z,26.72
2018-07-31T05:12:39.312Z,26.78
2018-07-31T05:15:37.255Z,26.55
2018-07-31T05:18:35.145Z,26.72
2018-07-31T05:21:32.440Z,26.36
2018-07-31T05:24:29.616Z,26.52
2018-07-31T05:27:27.367Z,26.21
2018-07-31T05:30:24.678Z,25.96
2018-07-31T05:33:22.503Z,25.94
2018-07-31T05:36:19.750Z,25.65
2018-07-31T05:39:18.228Z,25.73
2018-07-31T05:42:15.396Z,25.67
2018-07-31T05:45:13.047Z,25.24
2018-07-31T05:48:10.401Z,25.75
2018-07-31T05:51:08.084Z,27.44
2018-07-31T05:54:05.428Z,28.05
2018-07-31T05:57:02.834Z,29.33
2018-07-31T06:00:00.472Z,29.64
2018-07-31T06:02:58.352Z,31.04
2018-07-31T06:05:55.777Z,30.83
2018-07-31T06:08:52.948Z,30.81
2018-07-31T06:11:50.877Z,31.07
2018-07-31T06:14:48.610Z,31.63
2018-07-31T06:17:45.831Z,31.52
2018-07-31T06:20:43.412Z,31.96
2018-07-31T06:23:40.864Z,32.12
2018-07-31T06:26:37.900Z,32.62
2018-07-31T06:29:35.884Z,33.55
2018-07-31T06:32:32.829Z,35.00
2018-07-31T06:35:29.894Z,35.31
2018-07-31T06:38:27.876Z,36.36
2018-07-31T06:41:25.616Z,35.34
2018-07-31T06:44:23.139Z,34.72
2018-07-31T06:47:20.587Z,36.19
2018-07-31T06:50:18.299Z,36.30
2018-07-31T06:53:15.704Z,36.27
2018-07-31T06:56:13.269Z,35.09
2018-07-31T06:59:10.939Z,33.09
2018-07-31T07:02:08.364Z,33.13
2018-07-31T07:05:05.963Z,32.95
2018-07-31T07:08:03.893Z,33.22
2018-07-31T07:11:01.694Z,33.19
2018-07-31T07:13:59.531Z,35.19
2018-07-31T07:16:56.632Z,35.73
2018-07-31T07:19:53.888Z,36.33
2018-07-31T07:22:51.028Z,37.59
2018-07-31T07:25:49.026Z,37.97
2018-07-31T07:28:46.903Z,39.11
2018-07-31T07:31:44.759Z,40.46
2018-07-31T07:34:42.848Z,41.18
2018-07-31T07:37:40.551Z,39.89
2018-07-31T07:40:38.573Z,41.02
2018-07-31T07:43:35.835Z,39.51
2018-07-31T07:46:33.617Z,38.54
2018-07-31T07:49:31.069Z,36.40
2018-07-31T07:52:28.474Z,34.41
2018-07-31T07:55:25.676Z,33.62
2018-07-31T07:58:23.003Z,32.89
2018-07-31T08:01:20.179Z,34.50
2018-07-31T08:04:17.811Z,35.82
2018-07-31T08:07:15.343Z,36.53
2018-07-31T08:10:13.453Z,38.80
2018-07-31T08:13:10.867Z,38.16
2018-07-31T08:16:08.520Z,38.19
2018-07-31T08:19:06.214Z,39.17
2018-07-31T08:22:03.375Z,38.69
2018-07-31T08:25:00.732Z,38.91
2018-07-31T08:27:57.916Z,39.63
2018-07-31T08:30:55.914Z,39.91
2018-07-31T08:33:53.147Z,38.57
2018-07-31T08:36:51.275Z,38.43
2018-07-31T08:39:48.875Z,38.89
2018-07-31T08:42:47.020Z,38.56
2018-07-31T08:45:44.973Z,40.20
2018-07-31T08:48:42.107Z,41.39
2018-07-31T08:51:40.134Z,41.34
2018-07-31T08:54:37.823Z,39.93
2018-07-31T08:57:35.255Z,40.54
2018-07-31T09:00:32.354Z,41.14
2018-07-31T09:03:30.188Z,41.41
2018-07-31T09:06:28.050Z,40.59
2018-07-31T09:09:26.072Z,40.27
2018-07-31T09:12:23.499Z,41.34
2018-07-31T09:15:20.981Z,41.64
2018-07-31T09:18:18.192Z,42.27
2018-07-31T09:21:15.675Z,41.93
2018-07-31T09:24:13.163Z,40.80
2018-07-31T09:27:10.278Z,38.84
2018-07-31T09:30:08.480Z,38.34
2018-07-31T09:33:11.998Z,37.42
2018-07-31T09:36:09.436Z,38.36
2018-07-31T09:39:07.517Z,38.75
2018-07-31T09:42:04.855Z,38.56
2018-07-31T09:45:02.943Z,38.68
2018-07-31T09:48:00.235Z,38.10
2018-07-31T09:50:58.227Z,38.01
2018-07-31T09:53:55.445Z,37.48
2018-07-31T09:56:53.215Z,36.61
2018-07-31T09:59:51.319Z,36.61
2018-07-31T10:02:49.075Z,38.77
2018-07-31T10:05:46.454Z,39.69
2018-07-31T10:08:44.097Z,36.80
2018-07-31T10:11:41.935Z,36.61
2018-07-31T10:14:39.490Z,36.27
2018-07-31T10:17:37.473Z,36.04
2018-07-31T10:20:35.125Z,35.09
2018-07-31T10:23:32.325Z,34.02
2018-07-31T10:26:29.886Z,35.20
2018-07-31T10:29:27.709Z,35.23
2018-07-31T10:32:24.724Z,36.61
2018-07-31T10:35:22.613Z,37.35
2018-07-31T10:38:20.136Z,37.76
2018-07-31T10:41:17.819Z,37.71
2018-07-31T10:44:15.380Z,36.15
2018-07-31T10:47:12.943Z,36.38
2018-07-31T10:50:10.295Z,37.82
2018-07-31T10:53:08.146Z,38.95
2018-07-31T10:56:06.177Z,38.24
2018-07-31T10:59:04.240Z,37.14
2018-07-31T11:02:02.523Z,36.62
2018-07-31T11:04:59.692Z,36.07
2018-07-31T11:07:57.631Z,35.83
2018-07-31T11:10:55.598Z,36.86
2018-07-31T11:13:53.588Z,37.82
2018-07-31T11:16:51.563Z,36.95
2018-07-31T11:19:49.444Z,35.67
2018-07-31T11:22:46.912Z,36.87
2018-07-31T11:25:44.531Z,38.39
2018-07-31T11:28:42.116Z,37.44
2018-07-31T11:31:39.799Z,37.23
2018-07-31T11:34:37.070Z,38.12
2018-07-31T11:37:34.454Z,38.41
2018-07-31T11:40:32.603Z,36.79
2018-07-31T11:43:29.928Z,36.12
2018-07-31T11:46:27.652Z,35.53
2018-07-31T11:49:25.179Z,35.10
2018-07-31T11:52:22.112Z,34.52
2018-07-31T11:55:19.216Z,34.18
2018-07-31T11:58:16.561Z,34.66
2018-07-31T12:01:14.531Z,35.07
2018-07-31T12:04:12.429Z,34.53
2018-07-31T12:07:10.362Z,34.78
2018-07-31T12:10:08.369Z,34.67
2018-07-31T12:13:06.444Z,34.97
2018-07-31T12:16:03.510Z,34.81
2018-07-31T12:19:01.360Z,34.69
2018-07-31T12:21:59.251Z,34.82
2018-07-31T12:24:57.290Z,34.76
2018-07-31T12:27:54.619Z,34.63
2018-07-31T12:30:52.295Z,34.64
2018-07-31T12:33:50.151Z,34.69
2018-07-31T12:36:47.315Z,34.82
2018-07-31T12:39:44.622Z,35.05
2018-07-31T12:42:42.271Z,35.05
2018-07-31T12:45:39.950Z,35.10
2018-07-31T12:48:37.782Z,34.97
2018-07-31T12:51:35.176Z,35.30
2018-07-31T12:54:32.927Z,35.65
2018-07-31T12:57:30.483Z,35.27
2018-07-31T13:00:28.166Z,35.26
2018-07-31T13:03:25.919Z,35.44
2018-07-31T13:06:23.234Z,35.49
2018-07-31T13:09:21.505Z,35.16
2018-07-31T13:12:19.127Z,34.90
2018-07-31T13:15:17.044Z,34.46
2018-07-31T13:18:15.183Z,34.66
2018-07-31T13:21:12.237Z,34.68
2018-07-31T13:24:09.497Z,34.71
2018-07-31T13:27:07.515Z,34.88
2018-07-31T13:30:04.756Z,35.00
2018-07-31T13:33:02.814Z,34.73
2018-07-31T13:35:59.755Z,34.82
2018-07-31T13:38:57.558Z,34.86
2018-07-31T13:41:54.700Z,35.18
2018-07-31T13:44:51.743Z,34.88
2018-07-31T13:47:49.426Z,34.44
2018-07-31T13:50:47.302Z,34.37
2018-07-31T13:53:44.767Z,34.49
2018-07-31T13:56:42.213Z,34.38
2018-07-31T13:59:39.374Z,34.52
2018-07-31T14:02:36.930Z,34.34
2018-07-31T14:05:43.151Z,34.40
2018-07-31T14:08:41.489Z,34.29
2018-07-31T14:11:39.283Z,34.50
2018-07-31T14:14:36.858Z,34.50
2018-07-31T14:17:34.790Z,34.34
2018-07-31T14:20:31.986Z,34.23
2018-07-31T14:23:30.111Z,34.43
2018-07-31T14:26:28.026Z,34.62
2018-07-31T14:29:26.077Z,34.69
2018-07-31T14:32:24.133Z,34.32
2018-07-31T14:35:22.111Z,34.36
2018-07-31T14:38:19.878Z,34.38
2018-07-31T14:41:16.989Z,34.31
2018-07-31T14:44:14.631Z,34.05
2018-07-31T14:47:11.746Z,34.02
2018-07-31T14:50:09.919Z,33.92
2018-07-31T14:53:07.385Z,33.93
2018-07-31T14:56:05.465Z,34.01
2018-07-31T14:59:03.482Z,33.96
2018-07-31T15:02:00.539Z,34.12
2018-07-31T15:04:58.504Z,33.88
2018-07-31T15:07:55.482Z,33.80
2018-07-31T15:10:52.818Z,33.82
2018-07-31T15:13:50.883Z,34.01
2018-07-31T15:16:48.039Z,34.09
2018-07-31T15:19:46.096Z,34.20
2018-07-31T15:22:43.157Z,34.22
2018-07-31T15:25:41.362Z,34.02
2018-07-31T15:28:38.491Z,34.08
2018-07-31T15:31:36.582Z,34.19
2018-07-31T15:34:34.893Z,34.30
2018-07-31T15:37:32.944Z,34.12
2018-07-31T15:40:30.291Z,34.28
2018-07-31T15:43:28.491Z,34.21
2018-07-31T15:46:26.432Z,33.79
2018-07-31T15:49:24.425Z,33.67
2018-07-31T15:52:22.483Z,33.70
2018-07-31T15:55:20.240Z,33.44
2018-07-31T15:58:17.437Z,33.51
2018-07-31T16:01:15.169Z,33.51
2018-07-31T16:04:13.052Z,33.64
2018-07-31T16:07:11.098Z,33.55
2018-07-31T16:10:08.491Z,33.49
2018-07-31T16:13:06.556Z,33.43
2018-07-31T16:16:04.540Z,33.34
2018-07-31T16:19:02.616Z,33.21
2018-07-31T16:22:00.090Z,33.19
2018-07-31T16:24:58.146Z,33.00
2018-07-31T16:27:55.907Z,32.76
2018-07-31T16:30:53.299Z,32.61
2018-07-31T16:33:51.361Z,32.77
2018-07-31T16:36:49.119Z,32.46
2018-07-31T16:39:47.128Z,32.60
2018-07-31T16:42:44.263Z,32.45
2018-07-31T16:45:41.403Z,32.26
2018-07-31T16:48:38.980Z,32.10
2018-07-31T16:51:36.775Z,31.99
2018-07-31T16:54:34.774Z,31.98
2018-07-31T16:57:32.676Z,31.93
2018-07-31T17:00:30.661Z,31.95
2018-07-31T17:03:28.720Z,31.49
2018-07-31T17:06:26.839Z,31.60
2018-07-31T17:09:24.690Z,31.61
2018-07-31T17:12:22.735Z,31.44
2018-07-31T17:15:20.663Z,31.56
2018-07-31T17:18:18.833Z,31.50
2018-07-31T17:21:16.103Z,31.40
2018-07-31T17:24:14.207Z,31.32
2018-07-31T17:27:12.135Z,31.17
2018-07-31T17:30:09.305Z,30.94
2018-07-31T17:33:06.642Z,30.92
2018-07-31T17:36:04.748Z,30.91
2018-07-31T17:39:02.745Z,30.89
2018-07-31T17:41:59.881Z,30.87
2018-07-31T17:44:57.920Z,30.74
2018-07-31T17:47:55.884Z,30.41
2018-07-31T17:50:52.965Z,30.50
2018-07-31T17:53:50.201Z,30.43
2018-07-31T17:56:48.116Z,30.44
2018-07-31T17:59:45.499Z,30.33
2018-07-31T18:02:43.651Z,30.14
2018-07-31T18:05:41.549Z,29.98
2018-07-31T18:08:39.475Z,29.78
2018-07-31T18:11:36.632Z,29.58
2018-07-31T18:14:34.620Z,29.51
2018-07-31T18:17:32.911Z,29.49
2018-07-31T18:20:30.941Z,29.44
2018-07-31T18:23:28.967Z,29.29
2018-07-31T18:26:26.897Z,29.22
2018-07-31T18:29:24.042Z,29.08
2018-07-31T18:32:21.168Z,28.94
2018-07-31T18:35:18.198Z,28.71
2018-07-31T18:38:16.349Z,28.46
2018-07-31T18:41:13.694Z,28.38
2018-07-31T18:44:11.587Z,28.34
2018-07-31T18:47:09.496Z,28.17
2018-07-31T18:50:06.591Z,27.91
2018-07-31T18:53:03.592Z,27.74
2018-07-31T18:56:00.742Z,27.74
2018-07-31T18:58:58.705Z,27.51
2018-07-31T19:01:56.855Z,27.38
2018-07-31T19:04:54.706Z,27.33
2018-07-31T19:07:52.537Z,27.23
2018-07-31T19:10:49.915Z,27.15
2018-07-31T19:13:47.547Z,27.08
2018-07-31T19:16:45.667Z,26.97
2018-07-31T19:19:42.892Z,26.89
2018-07-31T19:22:40.950Z,26.76
2018-07-31T19:25:38.936Z,26.76
2018-07-31T19:28:36.945Z,26.58
2018-07-31T19:31:34.773Z,26.42
2018-07-31T19:34:32.736Z,26.32
2018-07-31T19:37:30.675Z,26.26
2018-07-31T19:40:28.724Z,26.25
2018-07-31T19:43:25.715Z,26.18
2018-07-31T19:46:22.870Z,26.17
2018-07-31T19:49:19.881Z,26.12
2018-07-31T19:52:17.101Z,26.07
2018-07-31T19:55:15.081Z,26.04
2018-07-31T19:58:12.526Z,26.01
2018-07-31T20:01:10.572Z,25.90
2018-07-31T20:04:07.801Z,25.94
2018-07-31T20:07:05.892Z,25.90
2018-07-31T20:10:02.997Z,25.78
2018-07-31T20:13:01.200Z,25.63
2018-07-31T20:15:59.064Z,25.56
2018-07-31T20:18:57.146Z,25.55
2018-07-31T20:21:54.495Z,25.49
2018-07-31T20:24:51.451Z,25.39
2018-07-31T20:27:49.688Z,25.28
2018-07-31T20:30:47.596Z,25.28
2018-07-31T20:33:46.012Z,25.21
2018-07-31T20:36:43.112Z,25.25
2018-07-31T20:39:41.139Z,25.17
2018-07-31T20:42:39.206Z,25.09
2018-07-31T20:45:37.179Z,25.00
2018-07-31T20:48:35.221Z,24.96
2018-07-31T20:51:33.246Z,24.87
2018-07-31T20:54:30.390Z,24.78
2018-07-31T20:57:28.371Z,24.88
2018-07-31T21:00:25.817Z,24.80
2018-07-31T21:03:23.787Z,24.72
2018-07-31T21:06:20.748Z,24.65
2018-07-31T21:09:24.687Z,24.55
2018-07-31T21:12:22.511Z,24.49
2018-07-31T21:15:20.600Z,24.56
2018-07-31T21:18:18.830Z,24.44
2018-07-31T21:21:16.748Z,24.43
2018-07-31T21:24:13.759Z,24.36
2018-07-31T21:27:11.634Z,24.41
2018-07-31T21:30:08.851Z,24.34
2018-07-31T21:33:05.960Z,24.35
2018-07-31T21:36:03.625Z,24.35
2018-07-31T21:39:01.555Z,24.25
2018-07-31T21:41:59.639Z,24.23
2018-07-31T21:44:57.696Z,24.15
2018-07-31T21:47:55.805Z,24.08
2018-07-31T21:50:53.860Z,24.07
2018-07-31T21:53:51.019Z,24.09
2018-07-31T21:56:48.057Z,23.97
2018-07-31T21:59:45.172Z,23.98
2018-07-31T22:02:43.154Z,23.90
2018-07-31T22:05:40.167Z,23.91
2018-07-31T22:08:38.063Z,23.90
2018-07-31T22:11:35.332Z,23.85
2018-07-31T22:14:33.420Z,23.80
2018-07-31T22:17:31.500Z,23.84
2018-07-31T22:20:29.697Z,23.73
2018-07-31T22:23:26.935Z,23.58
2018-07-31T22:26:25.038Z,23.57
2018-07-31T22:29:21.923Z,23.61
2018-07-31T22:32:19.740Z,23.47
2018-07-31T22:35:16.736Z,23.49
2018-07-31T22:38:13.924Z,23.41
2018-07-31T22:41:11.083Z,23.38
2018-07-31T22:44:08.159Z,23.32
2018-07-31T22:47:05.320Z,23.30
2018-07-31T22:50:02.873Z,23.25
2018-07-31T22:53:00.847Z,23.21
2018-07-31T22:55:57.895Z,23.21
2018-07-31T22:58:56.103Z,23.18
2018-07-31T23:01:53.957Z,23.16
2018-07-31T23:04:51.946Z,23.12
2018-07-31T23:07:49.715Z,23.07
2018-07-31T23:10:47.551Z,22.98
2018-07-31T23:13:45.418Z,22.89
2018-07-31T23:16:44.521Z,22.96
2018-07-31T23:19:41.557Z,22.96
2018-07-31T23:22:50.828Z,22.91
2018-07-31T23:25:48.916Z,22.85
2018-07-31T23:28:46.976Z,22.89
2018-07-31T23:31:45.935Z,22.83
2018-07-31T23:34:43.913Z,22.79
2018-07-31T23:37:41.250Z,22.77
2018-07-31T23:40:38.464Z,22.68
2018-07-31T23:43:36.444Z,22.55
2018-07-31T23:46:34.558Z,22.61
2018-07-31T23:49:32.591Z,22.53
2018-07-31T23:52:30.572Z,22.50
2018-07-31T23:55:28.556Z,22.50
2018-07-31T23:58:25.721Z,22.42
